sensor_id;sensor_type;location;lat;lon;timestamp;P1;durP1;ratioP1;P2;durP2;ratioP2
22287;SDS011;11312;51.464;6.968;2022-07-30T00:01:15;1.73;;;1.00;;
22287;SDS011;11312;51.464;6.968;2022-07-30T00:03:41;1.45;;;1.08;;
22287;SDS011;11312;51.464;6.968;2022-07-30T00:06:07;1.20;;;1.05;;
22287;SDS011;11312;51.464;6.968;2022-07-30T00:08:32;4.80;;;1.38;;
22287;SDS011;11312;51.464;6.968;2022-07-30T00:10:58;3.17;;;1.60;;
22287;SDS011;11312;51.464;6.968;2022-07-30T00:13:24;1.83;;;1.15;;
22287;SDS011;11312;51.464;6.968;2022-07-30T00:15:49;3.17;;;1.40;;
22287;SDS011;11312;51.464;6.968;2022-07-30T00:18:15;1.75;;;1.23;;
22287;SDS011;11312;51.464;6.968;2022-07-30T00:20:41;2.35;;;1.35;;
22287;SDS011;11312;51.464;6.968;2022-07-30T00:23:06;1.02;;;0.90;;
22287;SDS011;11312;51.464;6.968;2022-07-30T00:25:32;3.00;;;1.67;;
22287;SDS011;11312;51.464;6.968;2022-07-30T00:27:58;3.15;;;1.85;;
22287;SDS011;11312;51.464;6.968;2022-07-30T00:30:23;2.80;;;1.38;;
22287;SDS011;11312;51.464;6.968;2022-07-30T00:32:49;7.28;;;1.25;;
22287;SDS011;11312;51.464;6.968;2022-07-30T00:35:15;0.95;;;0.93;;
22287;SDS011;11312;51.464;6.968;2022-07-30T00:37:41;3.22;;;1.75;;
22287;SDS011;11312;51.464;6.968;2022-07-30T00:40:07;1.23;;;1.00;;
22287;SDS011;11312;51.464;6.968;2022-07-30T00:42:40;1.92;;;1.17;;
22287;SDS011;11312;51.464;6.968;2022-07-30T00:45:10;1.67;;;1.20;;
22287;SDS011;11312;51.464;6.968;2022-07-30T00:47:37;3.67;;;1.75;;
22287;SDS011;11312;51.464;6.968;2022-07-30T00:50:04;2.58;;;1.40;;
22287;SDS011;11312;51.464;6.968;2022-07-30T00:52:33;1.42;;;1.13;;
22287;SDS011;11312;51.464;6.968;2022-07-30T00:54:59;1.70;;;1.08;;
22287;SDS011;11312;51.464;6.968;2022-07-30T00:57:26;1.10;;;1.00;;
22287;SDS011;11312;51.464;6.968;2022-07-30T00:59:52;1.58;;;1.10;;
22287;SDS011;11312;51.464;6.968;2022-07-30T01:02:18;2.75;;;1.50;;
22287;SDS011;11312;51.464;6.968;2022-07-30T01:04:44;1.65;;;1.17;;
22287;SDS011;11312;51.464;6.968;2022-07-30T01:07:10;2.75;;;1.45;;
22287;SDS011;11312;51.464;6.968;2022-07-30T01:09:36;2.85;;;1.35;;
22287;SDS011;11312;51.464;6.968;2022-07-30T01:12:02;3.17;;;1.33;;
22287;SDS011;11312;51.464;6.968;2022-07-30T01:14:31;6.40;;;2.17;;
22287;SDS011;11312;51.464;6.968;2022-07-30T01:16:58;1.42;;;1.10;;
22287;SDS011;11312;51.464;6.968;2022-07-30T01:19:26;1.27;;;1.00;;
22287;SDS011;11312;51.464;6.968;2022-07-30T01:28:40;4.40;;;1.75;;
22287;SDS011;11312;51.464;6.968;2022-07-30T01:30:37;3.45;;;1.63;;
22287;SDS011;11312;51.464;6.968;2022-07-30T01:33:05;3.60;;;1.40;;
22287;SDS011;11312;51.464;6.968;2022-07-30T01:35:34;2.28;;;1.42;;
22287;SDS011;11312;51.464;6.968;2022-07-30T01:38:02;2.33;;;1.30;;
22287;SDS011;11312;51.464;6.968;2022-07-30T01:40:29;1.35;;;1.05;;
22287;SDS011;11312;51.464;6.968;2022-07-30T01:42:56;2.17;;;1.35;;
22287;SDS011;11312;51.464;6.968;2022-07-30T01:45:24;2.42;;;1.45;;
22287;SDS011;11312;51.464;6.968;2022-07-30T01:47:52;2.55;;;1.40;;
22287;SDS011;11312;51.464;6.968;2022-07-30T01:50:19;2.00;;;1.30;;
22287;SDS011;11312;51.464;6.968;2022-07-30T01:52:47;2.22;;;1.60;;
22287;SDS011;11312;51.464;6.968;2022-07-30T01:55:16;1.88;;;1.20;;
22287;SDS011;11312;51.464;6.968;2022-07-30T01:57:45;2.40;;;1.20;;
22287;SDS011;11312;51.464;6.968;2022-07-30T02:00:12;9.23;;;1.42;;
22287;SDS011;11312;51.464;6.968;2022-07-30T02:02:38;2.60;;;1.35;;
22287;SDS011;11312;51.464;6.968;2022-07-30T02:05:05;2.08;;;1.33;;
22287;SDS011;11312;51.464;6.968;2022-07-30T02:07:36;2.75;;;1.33;;
22287;SDS011;11312;51.464;6.968;2022-07-30T02:12:49;1.20;;;1.00;;
22287;SDS011;11312;51.464;6.968;2022-07-30T02:15:24;3.97;;;1.60;;
22287;SDS011;11312;51.464;6.968;2022-07-30T02:17:58;2.03;;;1.20;;
22287;SDS011;11312;51.464;6.968;2022-07-30T02:20:28;2.72;;;1.30;;
22287;SDS011;11312;51.464;6.968;2022-07-30T02:22:59;2.28;;;1.30;;
22287;SDS011;11312;51.464;6.968;2022-07-30T02:25:29;1.90;;;1.20;;
22287;SDS011;11312;51.464;6.968;2022-07-30T02:27:59;1.10;;;1.00;;
22287;SDS011;11312;51.464;6.968;2022-07-30T02:30:29;2.55;;;1.20;;
22287;SDS011;11312;51.464;6.968;2022-07-30T02:32:59;1.67;;;1.17;;
22287;SDS011;11312;51.464;6.968;2022-07-30T02:35:28;2.90;;;1.30;;
22287;SDS011;11312;51.464;6.968;2022-07-30T02:37:55;6.05;;;1.90;;
22287;SDS011;11312;51.464;6.968;2022-07-30T02:40:24;1.63;;;1.10;;
22287;SDS011;11312;51.464;6.968;2022-07-30T02:42:51;4.63;;;2.10;;
22287;SDS011;11312;51.464;6.968;2022-07-30T02:45:18;2.75;;;1.40;;
22287;SDS011;11312;51.464;6.968;2022-07-30T02:47:45;3.45;;;1.50;;
22287;SDS011;11312;51.464;6.968;2022-07-30T02:50:14;1.00;;;1.00;;
22287;SDS011;11312;51.464;6.968;2022-07-30T02:52:42;5.30;;;1.58;;
22287;SDS011;11312;51.464;6.968;2022-07-30T02:55:09;2.45;;;1.35;;
22287;SDS011;11312;51.464;6.968;2022-07-30T02:57:37;2.38;;;1.27;;
22287;SDS011;11312;51.464;6.968;2022-07-30T03:00:06;2.63;;;1.33;;
22287;SDS011;11312;51.464;6.968;2022-07-30T03:02:33;4.53;;;2.35;;
22287;SDS011;11312;51.464;6.968;2022-07-30T03:05:00;2.20;;;1.20;;
22287;SDS011;11312;51.464;6.968;2022-07-30T03:07:28;5.13;;;2.47;;
22287;SDS011;11312;51.464;6.968;2022-07-30T03:09:56;2.92;;;1.60;;
22287;SDS011;11312;51.464;6.968;2022-07-30T03:12:22;3.13;;;1.52;;
22287;SDS011;11312;51.464;6.968;2022-07-30T03:14:49;2.58;;;1.30;;
22287;SDS011;11312;51.464;6.968;2022-07-30T03:17:16;2.30;;;1.40;;
22287;SDS011;11312;51.464;6.968;2022-07-30T03:19:44;5.50;;;1.30;;
22287;SDS011;11312;51.464;6.968;2022-07-30T03:22:12;2.58;;;1.30;;
22287;SDS011;11312;51.464;6.968;2022-07-30T03:24:40;5.28;;;1.75;;
22287;SDS011;11312;51.464;6.968;2022-07-30T03:27:08;2.22;;;1.17;;
22287;SDS011;11312;51.464;6.968;2022-07-30T03:29:34;1.38;;;1.15;;
22287;SDS011;11312;51.464;6.968;2022-07-30T03:32:02;3.10;;;1.30;;
22287;SDS011;11312;51.464;6.968;2022-07-30T03:34:30;2.35;;;1.25;;
22287;SDS011;11312;51.464;6.968;2022-07-30T03:36:58;4.18;;;1.85;;
22287;SDS011;11312;51.464;6.968;2022-07-30T03:39:29;2.63;;;1.35;;
22287;SDS011;11312;51.464;6.968;2022-07-30T03:41:58;1.55;;;1.25;;
22287;SDS011;11312;51.464;6.968;2022-07-30T03:44:24;3.33;;;1.65;;
22287;SDS011;11312;51.464;6.968;2022-07-30T03:46:50;3.10;;;1.45;;
22287;SDS011;11312;51.464;6.968;2022-07-30T03:49:17;1.95;;;1.20;;
22287;SDS011;11312;51.464;6.968;2022-07-30T03:51:43;3.70;;;1.58;;
22287;SDS011;11312;51.464;6.968;2022-07-30T03:54:10;3.08;;;1.38;;
22287;SDS011;11312;51.464;6.968;2022-07-30T03:56:37;2.08;;;1.27;;
22287;SDS011;11312;51.464;6.968;2022-07-30T03:59:03;3.33;;;1.60;;
22287;SDS011;11312;51.464;6.968;2022-07-30T04:01:29;2.80;;;1.38;;
22287;SDS011;11312;51.464;6.968;2022-07-30T04:04:02;2.28;;;1.20;;
22287;SDS011;11312;51.464;6.968;2022-07-30T04:06:35;1.80;;;1.25;;
22287;SDS011;11312;51.464;6.968;2022-07-30T04:09:04;3.83;;;1.55;;
22287;SDS011;11312;51.464;6.968;2022-07-30T04:11:31;2.30;;;1.30;;
22287;SDS011;11312;51.464;6.968;2022-07-30T04:13:57;1.85;;;1.20;;
22287;SDS011;11312;51.464;6.968;2022-07-30T04:16:26;2.83;;;1.60;;
22287;SDS011;11312;51.464;6.968;2022-07-30T04:19:33;3.97;;;1.63;;
22287;SDS011;11312;51.464;6.968;2022-07-30T04:22:06;1.75;;;1.20;;
22287;SDS011;11312;51.464;6.968;2022-07-30T04:24:33;4.03;;;1.67;;
22287;SDS011;11312;51.464;6.968;2022-07-30T04:27:00;2.03;;;1.30;;
22287;SDS011;11312;51.464;6.968;2022-07-30T04:29:26;5.32;;;2.38;;
22287;SDS011;11312;51.464;6.968;2022-07-30T04:31:52;4.45;;;1.75;;
22287;SDS011;11312;51.464;6.968;2022-07-30T04:34:18;2.88;;;1.45;;
22287;SDS011;11312;51.464;6.968;2022-07-30T04:36:44;3.10;;;1.65;;
22287;SDS011;11312;51.464;6.968;2022-07-30T04:39:10;2.88;;;1.42;;
22287;SDS011;11312;51.464;6.968;2022-07-30T04:41:37;2.45;;;1.33;;
22287;SDS011;11312;51.464;6.968;2022-07-30T04:44:03;3.42;;;1.67;;
22287;SDS011;11312;51.464;6.968;2022-07-30T04:46:29;4.50;;;1.90;;
22287;SDS011;11312;51.464;6.968;2022-07-30T04:48:55;3.30;;;1.40;;
22287;SDS011;11312;51.464;6.968;2022-07-30T04:51:33;2.70;;;1.40;;
22287;SDS011;11312;51.464;6.968;2022-07-30T04:54:00;4.05;;;1.70;;
22287;SDS011;11312;51.464;6.968;2022-07-30T04:56:29;3.67;;;1.55;;
22287;SDS011;11312;51.464;6.968;2022-07-30T04:58:57;3.25;;;1.58;;
22287;SDS011;11312;51.464;6.968;2022-07-30T05:01:24;4.03;;;1.80;;
22287;SDS011;11312;51.464;6.968;2022-07-30T05:03:54;5.10;;;2.08;;
22287;SDS011;11312;51.464;6.968;2022-07-30T05:06:21;1.42;;;1.17;;
22287;SDS011;11312;51.464;6.968;2022-07-30T05:08:49;3.25;;;1.42;;
22287;SDS011;11312;51.464;6.968;2022-07-30T05:11:15;8.43;;;1.60;;
22287;SDS011;11312;51.464;6.968;2022-07-30T05:13:41;6.40;;;2.25;;
22287;SDS011;11312;51.464;6.968;2022-07-30T05:16:08;3.15;;;1.42;;
22287;SDS011;11312;51.464;6.968;2022-07-30T05:18:34;4.07;;;1.75;;
22287;SDS011;11312;51.464;6.968;2022-07-30T05:20:59;3.30;;;1.48;;
22287;SDS011;11312;51.464;6.968;2022-07-30T05:23:25;3.17;;;1.58;;
22287;SDS011;11312;51.464;6.968;2022-07-30T05:25:51;2.45;;;1.35;;
22287;SDS011;11312;51.464;6.968;2022-07-30T05:28:16;8.98;;;1.35;;
22287;SDS011;11312;51.464;6.968;2022-07-30T05:30:42;4.60;;;1.90;;
22287;SDS011;11312;51.464;6.968;2022-07-30T05:33:08;5.18;;;2.38;;
22287;SDS011;11312;51.464;6.968;2022-07-30T05:35:33;4.30;;;1.92;;
22287;SDS011;11312;51.464;6.968;2022-07-30T05:37:59;4.55;;;2.13;;
22287;SDS011;11312;51.464;6.968;2022-07-30T05:40:25;6.72;;;2.08;;
22287;SDS011;11312;51.464;6.968;2022-07-30T05:42:51;8.98;;;3.30;;
22287;SDS011;11312;51.464;6.968;2022-07-30T05:45:16;5.40;;;2.55;;
22287;SDS011;11312;51.464;6.968;2022-07-30T05:47:42;5.60;;;2.13;;
22287;SDS011;11312;51.464;6.968;2022-07-30T05:50:08;15.25;;;3.55;;
22287;SDS011;11312;51.464;6.968;2022-07-30T05:52:34;7.75;;;3.30;;
22287;SDS011;11312;51.464;6.968;2022-07-30T05:54:59;7.95;;;2.58;;
22287;SDS011;11312;51.464;6.968;2022-07-30T05:57:25;16.80;;;4.15;;
22287;SDS011;11312;51.464;6.968;2022-07-30T05:59:51;6.05;;;2.63;;
22287;SDS011;11312;51.464;6.968;2022-07-30T06:02:17;9.00;;;3.17;;
22287;SDS011;11312;51.464;6.968;2022-07-30T06:04:42;9.30;;;3.35;;
22287;SDS011;11312;51.464;6.968;2022-07-30T06:07:08;6.40;;;2.67;;
22287;SDS011;11312;51.464;6.968;2022-07-30T06:09:33;10.38;;;2.85;;
22287;SDS011;11312;51.464;6.968;2022-07-30T06:11:59;15.68;;;4.22;;
22287;SDS011;11312;51.464;6.968;2022-07-30T06:14:25;10.30;;;3.25;;
22287;SDS011;11312;51.464;6.968;2022-07-30T06:16:50;5.93;;;2.72;;
22287;SDS011;11312;51.464;6.968;2022-07-30T06:19:16;12.18;;;3.20;;
22287;SDS011;11312;51.464;6.968;2022-07-30T06:21:41;6.05;;;2.63;;
22287;SDS011;11312;51.464;6.968;2022-07-30T06:24:07;9.02;;;2.97;;
22287;SDS011;11312;51.464;6.968;2022-07-30T06:26:33;6.70;;;2.38;;
22287;SDS011;11312;51.464;6.968;2022-07-30T06:28:58;9.02;;;2.88;;
22287;SDS011;11312;51.464;6.968;2022-07-30T06:31:24;9.52;;;2.92;;
22287;SDS011;11312;51.464;6.968;2022-07-30T06:33:50;10.15;;;2.40;;
22287;SDS011;11312;51.464;6.968;2022-07-30T06:36:16;13.65;;;5.10;;
22287;SDS011;11312;51.464;6.968;2022-07-30T06:38:41;6.60;;;2.65;;
22287;SDS011;11312;51.464;6.968;2022-07-30T06:41:07;8.80;;;4.15;;
22287;SDS011;11312;51.464;6.968;2022-07-30T06:43:33;22.05;;;4.07;;
22287;SDS011;11312;51.464;6.968;2022-07-30T06:45:59;16.02;;;4.43;;
22287;SDS011;11312;51.464;6.968;2022-07-30T06:48:24;17.08;;;4.57;;
22287;SDS011;11312;51.464;6.968;2022-07-30T06:50:50;13.73;;;5.45;;
22287;SDS011;11312;51.464;6.968;2022-07-30T06:53:16;15.73;;;5.88;;
22287;SDS011;11312;51.464;6.968;2022-07-30T06:55:42;15.48;;;6.53;;
22287;SDS011;11312;51.464;6.968;2022-07-30T06:58:07;13.95;;;6.25;;
22287;SDS011;11312;51.464;6.968;2022-07-30T07:00:33;21.45;;;6.55;;
22287;SDS011;11312;51.464;6.968;2022-07-30T07:02:58;12.15;;;3.85;;
22287;SDS011;11312;51.464;6.968;2022-07-30T07:05:24;15.57;;;5.78;;
22287;SDS011;11312;51.464;6.968;2022-07-30T07:07:53;12.70;;;5.10;;
22287;SDS011;11312;51.464;6.968;2022-07-30T07:10:18;12.50;;;5.00;;
22287;SDS011;11312;51.464;6.968;2022-07-30T07:12:44;11.98;;;5.25;;
22287;SDS011;11312;51.464;6.968;2022-07-30T07:15:10;10.90;;;4.47;;
22287;SDS011;11312;51.464;6.968;2022-07-30T07:17:36;11.60;;;3.45;;
22287;SDS011;11312;51.464;6.968;2022-07-30T07:20:02;17.55;;;7.18;;
22287;SDS011;11312;51.464;6.968;2022-07-30T07:22:28;12.38;;;5.05;;
22287;SDS011;11312;51.464;6.968;2022-07-30T07:24:54;16.77;;;5.25;;
22287;SDS011;11312;51.464;6.968;2022-07-30T07:27:20;9.75;;;4.13;;
22287;SDS011;11312;51.464;6.968;2022-07-30T07:29:45;20.38;;;5.07;;
22287;SDS011;11312;51.464;6.968;2022-07-30T07:32:11;13.68;;;5.28;;
22287;SDS011;11312;51.464;6.968;2022-07-30T07:34:37;11.00;;;3.83;;
22287;SDS011;11312;51.464;6.968;2022-07-30T07:37:02;8.90;;;3.90;;
22287;SDS011;11312;51.464;6.968;2022-07-30T07:39:28;11.87;;;4.83;;
22287;SDS011;11312;51.464;6.968;2022-07-30T07:41:54;11.38;;;4.32;;
22287;SDS011;11312;51.464;6.968;2022-07-30T07:44:19;16.00;;;6.33;;
22287;SDS011;11312;51.464;6.968;2022-07-30T07:46:45;14.03;;;6.03;;
22287;SDS011;11312;51.464;6.968;2022-07-30T07:49:11;12.57;;;4.93;;
22287;SDS011;11312;51.464;6.968;2022-07-30T07:51:36;20.67;;;6.13;;
22287;SDS011;11312;51.464;6.968;2022-07-30T07:54:02;15.88;;;5.07;;
22287;SDS011;11312;51.464;6.968;2022-07-30T07:56:28;13.40;;;4.50;;
22287;SDS011;11312;51.464;6.968;2022-07-30T07:58:54;14.70;;;4.53;;
22287;SDS011;11312;51.464;6.968;2022-07-30T08:01:20;13.07;;;4.63;;
22287;SDS011;11312;51.464;6.968;2022-07-30T08:03:46;9.90;;;4.28;;
22287;SDS011;11312;51.464;6.968;2022-07-30T08:06:12;20.20;;;5.25;;
22287;SDS011;11312;51.464;6.968;2022-07-30T08:11:03;5.85;;;1.92;;
22287;SDS011;11312;51.464;6.968;2022-07-30T08:13:31;8.65;;;3.42;;
22287;SDS011;11312;51.464;6.968;2022-07-30T08:15:58;6.80;;;2.75;;
22287;SDS011;11312;51.464;6.968;2022-07-30T08:18:25;9.82;;;4.05;;
22287;SDS011;11312;51.464;6.968;2022-07-30T08:20:51;10.70;;;4.22;;
22287;SDS011;11312;51.464;6.968;2022-07-30T08:23:17;8.50;;;3.13;;
22287;SDS011;11312;51.464;6.968;2022-07-30T08:25:45;13.27;;;2.75;;
22287;SDS011;11312;51.464;6.968;2022-07-30T08:28:11;10.50;;;4.13;;
22287;SDS011;11312;51.464;6.968;2022-07-30T08:33:02;7.88;;;3.60;;
22287;SDS011;11312;51.464;6.968;2022-07-30T08:35:27;6.70;;;2.47;;
22287;SDS011;11312;51.464;6.968;2022-07-30T08:40:19;12.00;;;3.50;;
22287;SDS011;11312;51.464;6.968;2022-07-30T08:45:11;6.68;;;2.63;;
22287;SDS011;11312;51.464;6.968;2022-07-30T08:47:37;4.85;;;1.85;;
22287;SDS011;11312;51.464;6.968;2022-07-30T08:50:05;5.13;;;2.10;;
22287;SDS011;11312;51.464;6.968;2022-07-30T08:52:34;1.90;;;0.82;;
22287;SDS011;11312;51.464;6.968;2022-07-30T08:55:01;2.45;;;1.10;;
22287;SDS011;11312;51.464;6.968;2022-07-30T08:57:29;8.40;;;2.22;;
22287;SDS011;11312;51.464;6.968;2022-07-30T08:59:58;1.50;;;0.68;;
22287;SDS011;11312;51.464;6.968;2022-07-30T09:02:24;7.35;;;1.55;;
22287;SDS011;11312;51.464;6.968;2022-07-30T09:04:50;0.85;;;0.50;;
22287;SDS011;11312;51.464;6.968;2022-07-30T09:07:16;11.43;;;2.92;;
22287;SDS011;11312;51.464;6.968;2022-07-30T09:09:42;2.78;;;0.90;;
22287;SDS011;11312;51.464;6.968;2022-07-30T09:12:53;1.67;;;0.82;;
22287;SDS011;11312;51.464;6.968;2022-07-30T09:15:00;3.70;;;1.05;;
22287;SDS011;11312;51.464;6.968;2022-07-30T09:20:20;2.28;;;0.85;;
22287;SDS011;11312;51.464;6.968;2022-07-30T09:22:49;2.42;;;0.75;;
22287;SDS011;11312;51.464;6.968;2022-07-30T09:26:02;2.63;;;1.00;;
22287;SDS011;11312;51.464;6.968;2022-07-30T09:28:10;4.22;;;1.35;;
22287;SDS011;11312;51.464;6.968;2022-07-30T09:33:12;1.98;;;0.55;;
22287;SDS011;11312;51.464;6.968;2022-07-30T09:35:39;1.80;;;0.88;;
22287;SDS011;11312;51.464;6.968;2022-07-30T09:38:05;0.40;;;0.38;;
22287;SDS011;11312;51.464;6.968;2022-07-30T09:40:31;4.18;;;1.20;;
22287;SDS011;11312;51.464;6.968;2022-07-30T09:43:01;3.95;;;1.63;;
22287;SDS011;11312;51.464;6.968;2022-07-30T09:45:30;2.33;;;0.73;;
22287;SDS011;11312;51.464;6.968;2022-07-30T09:47:56;4.60;;;1.48;;
22287;SDS011;11312;51.464;6.968;2022-07-30T09:50:22;3.88;;;1.27;;
22287;SDS011;11312;51.464;6.968;2022-07-30T09:52:48;3.13;;;1.33;;
22287;SDS011;11312;51.464;6.968;2022-07-30T09:55:28;0.70;;;0.43;;
22287;SDS011;11312;51.464;6.968;2022-07-30T09:57:59;1.40;;;0.60;;
22287;SDS011;11312;51.464;6.968;2022-07-30T10:00:27;3.03;;;1.13;;
22287;SDS011;11312;51.464;6.968;2022-07-30T10:02:54;0.57;;;0.32;;
22287;SDS011;11312;51.464;6.968;2022-07-30T10:05:20;3.53;;;1.10;;
22287;SDS011;11312;51.464;6.968;2022-07-30T10:07:47;0.90;;;0.57;;
22287;SDS011;11312;51.464;6.968;2022-07-30T10:10:17;2.17;;;0.88;;
22287;SDS011;11312;51.464;6.968;2022-07-30T10:12:45;0.95;;;0.60;;
22287;SDS011;11312;51.464;6.968;2022-07-30T10:15:12;1.38;;;0.50;;
22287;SDS011;11312;51.464;6.968;2022-07-30T10:17:39;0.30;;;0.30;;
22287;SDS011;11312;51.464;6.968;2022-07-30T10:20:06;4.07;;;1.48;;
22287;SDS011;11312;51.464;6.968;2022-07-30T10:22:33;1.27;;;0.60;;
22287;SDS011;11312;51.464;6.968;2022-07-30T10:25:00;1.83;;;0.60;;
22287;SDS011;11312;51.464;6.968;2022-07-30T10:27:26;1.38;;;0.47;;
22287;SDS011;11312;51.464;6.968;2022-07-30T10:29:52;0.20;;;0.20;;
22287;SDS011;11312;51.464;6.968;2022-07-30T10:32:19;0.75;;;0.22;;
22287;SDS011;11312;51.464;6.968;2022-07-30T10:34:45;2.22;;;0.90;;
22287;SDS011;11312;51.464;6.968;2022-07-30T10:37:11;0.60;;;0.40;;
22287;SDS011;11312;51.464;6.968;2022-07-30T10:39:44;1.50;;;0.60;;
22287;SDS011;11312;51.464;6.968;2022-07-30T10:47:40;1.42;;;0.65;;
22287;SDS011;11312;51.464;6.968;2022-07-30T10:50:07;5.72;;;0.50;;
22287;SDS011;11312;51.464;6.968;2022-07-30T10:52:52;0.93;;;0.32;;
22287;SDS011;11312;51.464;6.968;2022-07-30T10:55:24;2.00;;;0.80;;
22287;SDS011;11312;51.464;6.968;2022-07-30T11:00:31;1.48;;;0.63;;
22287;SDS011;11312;51.464;6.968;2022-07-30T11:03:17;1.25;;;0.47;;
22287;SDS011;11312;51.464;6.968;2022-07-30T11:05:50;0.30;;;0.20;;
22287;SDS011;11312;51.464;6.968;2022-07-30T11:11:03;0.10;;;0.10;;
22287;SDS011;11312;51.464;6.968;2022-07-30T11:14:00;0.88;;;0.45;;
22287;SDS011;11312;51.464;6.968;2022-07-30T11:19:05;2.20;;;0.80;;
22287;SDS011;11312;51.464;6.968;2022-07-30T11:21:31;1.20;;;0.35;;
22287;SDS011;11312;51.464;6.968;2022-07-30T11:23:58;1.00;;;0.32;;
22287;SDS011;11312;51.464;6.968;2022-07-30T11:34:50;0.68;;;0.28;;
22287;SDS011;11312;51.464;6.968;2022-07-30T11:37:17;4.75;;;1.02;;
22287;SDS011;11312;51.464;6.968;2022-07-30T11:42:27;1.55;;;0.35;;
22287;SDS011;11312;51.464;6.968;2022-07-30T11:47:45;0.20;;;0.20;;
22287;SDS011;11312;51.464;6.968;2022-07-30T11:50:19;0.03;;;0.03;;
22287;SDS011;11312;51.464;6.968;2022-07-30T11:52:51;3.75;;;1.65;;
22287;SDS011;11312;51.464;6.968;2022-07-30T11:55:24;0.20;;;0.20;;
22287;SDS011;11312;51.464;6.968;2022-07-30T11:58:31;0.15;;;0.10;;
22287;SDS011;11312;51.464;6.968;2022-07-30T12:00:57;0.85;;;0.25;;
22287;SDS011;11312;51.464;6.968;2022-07-30T12:03:26;0.10;;;0.10;;
22287;SDS011;11312;51.464;6.968;2022-07-30T12:05:53;0.15;;;0.15;;
22287;SDS011;11312;51.464;6.968;2022-07-30T12:08:19;2.28;;;0.55;;
22287;SDS011;11312;51.464;6.968;2022-07-30T12:10:56;0.95;;;0.30;;
22287;SDS011;11312;51.464;6.968;2022-07-30T12:13:23;0.95;;;0.40;;
22287;SDS011;11312;51.464;6.968;2022-07-30T12:15:49;2.38;;;0.68;;
22287;SDS011;11312;51.464;6.968;2022-07-30T12:18:26;0.50;;;0.30;;
22287;SDS011;11312;51.464;6.968;2022-07-30T12:20:58;1.35;;;0.47;;
22287;SDS011;11312;51.464;6.968;2022-07-30T12:23:30;0.60;;;0.30;;
22287;SDS011;11312;51.464;6.968;2022-07-30T12:25:56;2.00;;;0.73;;
22287;SDS011;11312;51.464;6.968;2022-07-30T12:28:26;0.57;;;0.20;;
22287;SDS011;11312;51.464;6.968;2022-07-30T12:30:53;0.85;;;0.30;;
22287;SDS011;11312;51.464;6.968;2022-07-30T12:33:21;0.75;;;0.40;;
22287;SDS011;11312;51.464;6.968;2022-07-30T12:35:48;0.32;;;0.22;;
22287;SDS011;11312;51.464;6.968;2022-07-30T12:38:16;1.38;;;0.55;;
22287;SDS011;11312;51.464;6.968;2022-07-30T12:46:11;0.60;;;0.20;;
22287;SDS011;11312;51.464;6.968;2022-07-30T12:48:47;0.35;;;0.30;;
22287;SDS011;11312;51.464;6.968;2022-07-30T12:51:30;0.20;;;0.20;;
22287;SDS011;11312;51.464;6.968;2022-07-30T12:53:56;1.00;;;0.40;;
22287;SDS011;11312;51.464;6.968;2022-07-30T12:56:27;0.20;;;0.20;;
22287;SDS011;11312;51.464;6.968;2022-07-30T12:58:55;0.75;;;0.47;;
22287;SDS011;11312;51.464;6.968;2022-07-30T13:01:38;1.45;;;0.55;;
22287;SDS011;11312;51.464;6.968;2022-07-30T13:04:09;0.30;;;0.30;;
22287;SDS011;11312;51.464;6.968;2022-07-30T13:06:35;0.05;;;0.05;;
22287;SDS011;11312;51.464;6.968;2022-07-30T13:09:02;0.40;;;0.17;;
22287;SDS011;11312;51.464;6.968;2022-07-30T13:11:39;0.60;;;0.32;;
22287;SDS011;11312;51.464;6.968;2022-07-30T13:14:08;1.30;;;0.40;;
22287;SDS011;11312;51.464;6.968;2022-07-30T13:16:36;2.65;;;0.85;;
22287;SDS011;11312;51.464;6.968;2022-07-30T13:19:03;0.20;;;0.10;;
22287;SDS011;11312;51.464;6.968;2022-07-30T13:21:29;1.13;;;0.22;;
22287;SDS011;11312;51.464;6.968;2022-07-30T13:23:55;0.20;;;0.13;;
22287;SDS011;11312;51.464;6.968;2022-07-30T13:26:21;1.50;;;0.45;;
22287;SDS011;11312;51.464;6.968;2022-07-30T13:28:46;4.28;;;1.33;;
22287;SDS011;11312;51.464;6.968;2022-07-30T13:31:12;0.38;;;0.15;;
22287;SDS011;11312;51.464;6.968;2022-07-30T13:33:38;0.93;;;0.22;;
22287;SDS011;11312;51.464;6.968;2022-07-30T13:36:04;0.80;;;0.35;;
22287;SDS011;11312;51.464;6.968;2022-07-30T13:38:31;0.10;;;0.05;;
22287;SDS011;11312;51.464;6.968;2022-07-30T13:40:57;0.32;;;0.20;;
22287;SDS011;11312;51.464;6.968;2022-07-30T13:43:24;0.55;;;0.22;;
22287;SDS011;11312;51.464;6.968;2022-07-30T13:45:50;0.40;;;0.30;;
22287;SDS011;11312;51.464;6.968;2022-07-30T13:48:17;0.00;;;0.00;;
22287;SDS011;11312;51.464;6.968;2022-07-30T13:50:43;0.82;;;0.50;;
22287;SDS011;11312;51.464;6.968;2022-07-30T13:53:09;0.75;;;0.30;;
22287;SDS011;11312;51.464;6.968;2022-07-30T13:55:35;0.15;;;0.08;;
22287;SDS011;11312;51.464;6.968;2022-07-30T13:58:02;0.38;;;0.28;;
22287;SDS011;11312;51.464;6.968;2022-07-30T14:00:28;4.70;;;0.60;;
22287;SDS011;11312;51.464;6.968;2022-07-30T14:03:03;0.90;;;0.45;;
22287;SDS011;11312;51.464;6.968;2022-07-30T14:05:30;0.22;;;0.22;;
22287;SDS011;11312;51.464;6.968;2022-07-30T14:07:57;0.10;;;0.10;;
22287;SDS011;11312;51.464;6.968;2022-07-30T14:10:23;0.08;;;0.08;;
22287;SDS011;11312;51.464;6.968;2022-07-30T14:12:50;0.10;;;0.00;;
22287;SDS011;11312;51.464;6.968;2022-07-30T14:15:22;1.23;;;0.45;;
22287;SDS011;11312;51.464;6.968;2022-07-30T14:17:49;0.95;;;0.35;;
22287;SDS011;11312;51.464;6.968;2022-07-30T14:20:15;2.20;;;0.52;;
22287;SDS011;11312;51.464;6.968;2022-07-30T14:22:41;0.47;;;0.10;;
22287;SDS011;11312;51.464;6.968;2022-07-30T14:25:07;0.20;;;0.10;;
22287;SDS011;11312;51.464;6.968;2022-07-30T14:27:33;1.02;;;0.55;;
22287;SDS011;11312;51.464;6.968;2022-07-30T14:30:00;0.63;;;0.28;;
22287;SDS011;11312;51.464;6.968;2022-07-30T14:32:26;0.22;;;0.10;;
22287;SDS011;11312;51.464;6.968;2022-07-30T14:34:52;0.98;;;0.40;;
22287;SDS011;11312;51.464;6.968;2022-07-30T14:37:18;0.63;;;0.22;;
22287;SDS011;11312;51.464;6.968;2022-07-30T14:39:43;0.20;;;0.20;;
22287;SDS011;11312;51.464;6.968;2022-07-30T14:42:09;0.10;;;0.10;;
22287;SDS011;11312;51.464;6.968;2022-07-30T14:44:35;0.10;;;0.10;;
22287;SDS011;11312;51.464;6.968;2022-07-30T14:47:01;0.20;;;0.20;;
22287;SDS011;11312;51.464;6.968;2022-07-30T14:49:27;1.92;;;0.77;;
22287;SDS011;11312;51.464;6.968;2022-07-30T14:51:53;0.10;;;0.10;;
22287;SDS011;11312;51.464;6.968;2022-07-30T14:54:18;0.65;;;0.30;;
22287;SDS011;11312;51.464;6.968;2022-07-30T14:56:44;0.75;;;0.30;;
22287;SDS011;11312;51.464;6.968;2022-07-30T14:59:10;0.65;;;0.32;;
22287;SDS011;11312;51.464;6.968;2022-07-30T15:01:36;0.88;;;0.25;;
22287;SDS011;11312;51.464;6.968;2022-07-30T15:04:02;0.93;;;0.28;;
22287;SDS011;11312;51.464;6.968;2022-07-30T15:06:28;1.27;;;0.32;;
22287;SDS011;11312;51.464;6.968;2022-07-30T15:08:54;0.22;;;0.17;;
22287;SDS011;11312;51.464;6.968;2022-07-30T15:11:19;0.10;;;0.10;;
22287;SDS011;11312;51.464;6.968;2022-07-30T15:13:45;1.33;;;0.50;;
22287;SDS011;11312;51.464;6.968;2022-07-30T15:16:11;0.65;;;0.30;;
22287;SDS011;11312;51.464;6.968;2022-07-30T15:18:37;0.10;;;0.10;;
22287;SDS011;11312;51.464;6.968;2022-07-30T15:21:03;2.55;;;1.00;;
22287;SDS011;11312;51.464;6.968;2022-07-30T15:23:28;0.20;;;0.20;;
22287;SDS011;11312;51.464;6.968;2022-07-30T15:25:54;1.10;;;0.50;;
22287;SDS011;11312;51.464;6.968;2022-07-30T15:28:20;0.20;;;0.10;;
22287;SDS011;11312;51.464;6.968;2022-07-30T15:30:46;0.28;;;0.20;;
22287;SDS011;11312;51.464;6.968;2022-07-30T15:33:11;0.20;;;0.20;;
22287;SDS011;11312;51.464;6.968;2022-07-30T15:35:37;0.63;;;0.35;;
22287;SDS011;11312;51.464;6.968;2022-07-30T15:38:03;2.45;;;0.57;;
22287;SDS011;11312;51.464;6.968;2022-07-30T15:40:29;0.60;;;0.30;;
22287;SDS011;11312;51.464;6.968;2022-07-30T15:42:54;0.20;;;0.20;;
22287;SDS011;11312;51.464;6.968;2022-07-30T15:45:20;5.57;;;0.85;;